sensor_id;sensor_type;location;lat;lon;timestamp;pressure;altitude;pressure_sealevel;temperature;humidity
80149;BME280;69473;42.426;26.644;2023-05-20T00:00:22;99065.91;;;16.96;52.12
80149;BME280;69473;42.426;26.644;2023-05-20T00:02:47;99076.53;;;16.90;52.03
80149;BME280;69473;42.426;26.644;2023-05-20T00:05:13;99080.13;;;16.85;51.73
80149;BME280;69473;42.426;26.644;2023-05-20T00:07:39;99076.47;;;16.91;51.69
80149;BME280;69473;42.426;26.644;2023-05-20T00:10:05;99077.59;;;16.82;52.80
80149;BME280;69473;42.426;26.644;2023-05-20T00:12:31;99080.31;;;16.78;52.48
80149;BME280;69473;42.426;26.644;2023-05-20T00:14:56;99077.75;;;16.76;52.21
80149;BME280;69473;42.426;26.644;2023-05-20T00:17:22;99063.78;;;16.76;52.31
80149;BME280;69473;42.426;26.644;2023-05-20T00:19:49;99071.16;;;16.60;53.72
80149;BME280;69473;42.426;26.644;2023-05-20T00:22:15;99071.16;;;16.60;53.06
80149;BME280;69473;42.426;26.644;2023-05-20T00:24:40;99081.63;;;16.60;54.14
80149;BME280;69473;42.426;26.644;2023-05-20T00:27:06;99079.00;;;16.60;53.83
80149;BME280;69473;42.426;26.644;2023-05-20T00:29:32;99091.22;;;16.61;53.19
80149;BME280;69473;42.426;26.644;2023-05-20T00:31:58;99085.00;;;16.65;54.10
80149;BME280;69473;42.426;26.644;2023-05-20T00:34:23;99086.69;;;16.66;54.04
80149;BME280;69473;42.426;26.644;2023-05-20T00:36:49;99072.97;;;16.58;54.17
80149;BME280;69473;42.426;26.644;2023-05-20T00:39:15;99066.91;;;16.57;54.04
80149;BME280;69473;42.426;26.644;2023-05-20T00:41:41;99073.06;;;16.55;53.69
80149;BME280;69473;42.426;26.644;2023-05-20T00:44:06;99060.53;;;16.66;53.72
80149;BME280;69473;42.426;26.644;2023-05-20T00:46:32;99060.63;;;16.63;54.02
80149;BME280;69473;42.426;26.644;2023-05-20T00:48:58;99055.53;;;16.57;54.12
80149;BME280;69473;42.426;26.644;2023-05-20T00:51:23;99065.78;;;16.66;54.86
80149;BME280;69473;42.426;26.644;2023-05-20T00:53:49;99060.69;;;16.60;54.66
80149;BME280;69473;42.426;26.644;2023-05-20T00:56:16;99070.44;;;16.55;54.55
80149;BME280;69473;42.426;26.644;2023-05-20T00:58:43;99062.28;;;16.67;54.06
80149;BME280;69473;42.426;26.644;2023-05-20T01:01:08;99062.28;;;16.67;54.60
80149;BME280;69473;42.426;26.644;2023-05-20T01:03:34;99060.63;;;16.63;55.16
80149;BME280;69473;42.426;26.644;2023-05-20T01:06:00;99064.06;;;16.65;54.96
80149;BME280;69473;42.426;26.644;2023-05-20T01:08:26;99063.41;;;16.57;55.71
80149;BME280;69473;42.426;26.644;2023-05-20T01:11:05;99063.41;;;16.57;55.47
80149;BME280;69473;42.426;26.644;2023-05-20T01:13:38;99065.94;;;16.60;54.64
80149;BME280;69473;42.426;26.644;2023-05-20T01:16:08;99055.72;;;16.51;55.38
80149;BME280;69473;42.426;26.644;2023-05-20T01:18:35;99056.44;;;16.57;54.94
80149;BME280;69473;42.426;26.644;2023-05-20T01:21:06;99058.00;;;16.63;54.66
80149;BME280;69473;42.426;26.644;2023-05-20T01:23:39;99050.06;;;16.33;55.67
80149;BME280;69473;42.426;26.644;2023-05-20T01:26:06;99051.63;;;16.40;56.19
80149;BME280;69473;42.426;26.644;2023-05-20T01:28:33;99053.31;;;16.42;56.01
80149;BME280;69473;42.426;26.644;2023-05-20T01:31:01;99047.13;;;16.46;56.39
80149;BME280;69473;42.426;26.644;2023-05-20T01:33:30;99045.47;;;16.42;56.08
80149;BME280;69473;42.426;26.644;2023-05-20T01:35:57;99038.63;;;16.37;56.69
80149;BME280;69473;42.426;26.644;2023-05-20T01:38:25;99036.91;;;16.36;56.58
80149;BME280;69473;42.426;26.644;2023-05-20T01:40:53;99041.41;;;16.31;56.75
80149;BME280;69473;42.426;26.644;2023-05-20T01:43:20;99037.06;;;16.30;57.40
80149;BME280;69473;42.426;26.644;2023-05-20T01:45:45;99039.75;;;16.27;57.30
80149;BME280;69473;42.426;26.644;2023-05-20T01:48:12;99033.53;;;16.31;56.50
80149;BME280;69473;42.426;26.644;2023-05-20T01:50:38;99033.69;;;16.25;57.68
80149;BME280;69473;42.426;26.644;2023-05-20T01:53:04;99031.91;;;16.27;57.03
80149;BME280;69473;42.426;26.644;2023-05-20T01:55:32;99033.78;;;16.22;57.56
80149;BME280;69473;42.426;26.644;2023-05-20T01:57:58;99035.59;;;16.20;57.55
80149;BME280;69473;42.426;26.644;2023-05-20T02:00:24;99031.16;;;16.22;57.69
80149;BME280;69473;42.426;26.644;2023-05-20T02:02:49;99032.84;;;16.25;57.36
80149;BME280;69473;42.426;26.644;2023-05-20T02:05:15;99034.53;;;16.27;57.17
80149;BME280;69473;42.426;26.644;2023-05-20T02:07:41;99020.06;;;16.14;57.75
80149;BME280;69473;42.426;26.644;2023-05-20T02:10:07;99028.78;;;16.13;57.90
80149;BME280;69473;42.426;26.644;2023-05-20T02:12:32;99028.69;;;16.16;58.01
80149;BME280;69473;42.426;26.644;2023-05-20T02:14:58;99021.78;;;16.15;57.76
80149;BME280;69473;42.426;26.644;2023-05-20T02:17:24;99017.63;;;16.06;58.53
80149;BME280;69473;42.426;26.644;2023-05-20T02:19:49;99007.16;;;16.06;58.42
80149;BME280;69473;42.426;26.644;2023-05-20T02:22:15;99014.44;;;16.29;57.53
80149;BME280;69473;42.426;26.644;2023-05-20T02:24:40;99017.25;;;16.22;57.99
80149;BME280;69473;42.426;26.644;2023-05-20T02:27:07;99020.22;;;16.08;58.70
80149;BME280;69473;42.426;26.644;2023-05-20T02:29:33;99018.41;;;16.10;58.48
80149;BME280;69473;42.426;26.644;2023-05-20T02:31:58;99015.00;;;16.08;58.65
80149;BME280;69473;42.426;26.644;2023-05-20T02:34:24;99007.72;;;16.19;58.40
80149;BME280;69473;42.426;26.644;2023-05-20T02:36:50;99011.94;;;16.25;58.38
80149;BME280;69473;42.426;26.644;2023-05-20T02:39:17;99012.88;;;16.22;58.41
80149;BME280;69473;42.426;26.644;2023-05-20T02:41:42;99009.53;;;16.17;58.67
80149;BME280;69473;42.426;26.644;2023-05-20T02:44:08;99021.84;;;16.12;58.60
80149;BME280;69473;42.426;26.644;2023-05-20T02:46:33;99021.38;;;16.30;58.05
80149;BME280;69473;42.426;26.644;2023-05-20T02:48:59;99014.84;;;16.14;58.28
80149;BME280;69473;42.426;26.644;2023-05-20T02:51:24;99030.31;;;16.22;58.41
80149;BME280;69473;42.426;26.644;2023-05-20T02:53:50;99029.88;;;16.38;57.62
80149;BME280;69473;42.426;26.644;2023-05-20T02:56:15;99018.47;;;16.41;58.00
80149;BME280;69473;42.426;26.644;2023-05-20T02:58:46;99028.47;;;16.25;57.92
80149;BME280;69473;42.426;26.644;2023-05-20T03:01:12;99041.53;;;16.25;58.48
80149;BME280;69473;42.426;26.644;2023-05-20T03:03:37;99047.75;;;16.21;58.57
80149;BME280;69473;42.426;26.644;2023-05-20T03:06:05;99047.84;;;16.18;58.66
80149;BME280;69473;42.426;26.644;2023-05-20T03:08:32;99052.13;;;16.21;58.83
80149;BME280;69473;42.426;26.644;2023-05-20T03:10:59;99056.59;;;16.17;59.21
80149;BME280;69473;42.426;26.644;2023-05-20T03:13:24;99050.63;;;16.10;59.48
80149;BME280;69473;42.426;26.644;2023-05-20T03:15:50;99060.28;;;16.07;59.73
80149;BME280;69473;42.426;26.644;2023-05-20T03:18:16;99051.44;;;16.14;59.72
80149;BME280;69473;42.426;26.644;2023-05-20T03:20:41;99057.31;;;16.22;58.78
80149;BME280;69473;42.426;26.644;2023-05-20T03:23:07;99064.13;;;16.29;58.78
80149;BME280;69473;42.426;26.644;2023-05-20T03:25:33;99066.22;;;16.13;59.65
80149;BME280;69473;42.426;26.644;2023-05-20T03:27:59;99064.44;;;16.15;59.83
80149;BME280;69473;42.426;26.644;2023-05-20T03:30:25;99065.59;;;16.04;59.42
80149;BME280;69473;42.426;26.644;2023-05-20T03:32:52;99075.91;;;16.10;59.68
80149;BME280;69473;42.426;26.644;2023-05-20T03:35:17;99074.19;;;16.09;60.33
80149;BME280;69473;42.426;26.644;2023-05-20T03:37:43;99079.50;;;16.06;60.03
80149;BME280;69473;42.426;26.644;2023-05-20T03:40:09;99069.03;;;16.06;60.06
80149;BME280;69473;42.426;26.644;2023-05-20T03:42:35;99070.06;;;16.34;59.08
80149;BME280;69473;42.426;26.644;2023-05-20T03:45:01;99087.03;;;16.18;60.11
80149;BME280;69473;42.426;26.644;2023-05-20T03:47:27;99084.78;;;16.03;60.91
80149;BME280;69473;42.426;26.644;2023-05-20T03:49:53;99079.50;;;16.06;60.16
80149;BME280;69473;42.426;26.644;2023-05-20T03:52:19;99090.63;;;16.14;60.36
80149;BME280;69473;42.426;26.644;2023-05-20T03:54:44;99088.53;;;16.28;59.18
80149;BME280;69473;42.426;26.644;2023-05-20T03:57:10;99078.28;;;16.19;60.37
80149;BME280;69473;42.426;26.644;2023-05-20T03:59:36;99094.75;;;16.24;60.00
80149;BME280;69473;42.426;26.644;2023-05-20T04:02:02;99086.06;;;16.22;60.31
80149;BME280;69473;42.426;26.644;2023-05-20T04:04:28;99094.19;;;16.11;60.68
80149;BME280;69473;42.426;26.644;2023-05-20T04:06:54;99083.59;;;16.16;60.64
80149;BME280;69473;42.426;26.644;2023-05-20T04:09:21;99077.50;;;16.17;60.65
80149;BME280;69473;42.426;26.644;2023-05-20T04:11:47;99089.13;;;16.39;59.68
80149;BME280;69473;42.426;26.644;2023-05-20T04:14:12;99092.97;;;16.26;60.65
80149;BME280;69473;42.426;26.644;2023-05-20T04:16:38;99091.78;;;16.38;59.67
80149;BME280;69473;42.426;26.644;2023-05-20T04:19:04;99082.28;;;16.35;60.20
80149;BME280;69473;42.426;26.644;2023-05-20T04:21:29;99082.34;;;16.32;60.17
80149;BME280;69473;42.426;26.644;2023-05-20T04:23:55;99083.81;;;16.43;59.63
80149;BME280;69473;42.426;26.644;2023-05-20T04:26:21;99080.31;;;16.44;60.32
80149;BME280;69473;42.426;26.644;2023-05-20T04:28:47;99073.44;;;16.39;60.51
80149;BME280;69473;42.426;26.644;2023-05-20T04:31:16;99081.72;;;16.57;60.03
80149;BME280;69473;42.426;26.644;2023-05-20T04:33:41;99062.84;;;16.46;59.95
80149;BME280;69473;42.426;26.644;2023-05-20T04:36:09;99075.22;;;16.37;60.03
80149;BME280;69473;42.426;26.644;2023-05-20T04:38:37;99071.41;;;16.51;60.25
80149;BME280;69473;42.426;26.644;2023-05-20T04:41:03;99083.81;;;16.43;60.08
80149;BME280;69473;42.426;26.644;2023-05-20T04:43:29;99075.22;;;16.37;60.36
80149;BME280;69473;42.426;26.644;2023-05-20T04:45:57;99084.69;;;16.43;60.20
80149;BME280;69473;42.426;26.644;2023-05-20T04:48:24;99082.09;;;16.42;59.88
80149;BME280;69473;42.426;26.644;2023-05-20T04:50:50;99089.13;;;16.39;60.29
80149;BME280;69473;42.426;26.644;2023-05-20T04:53:20;99091.38;;;16.55;60.18
80149;BME280;69473;42.426;26.644;2023-05-20T04:55:48;99080.16;;;16.84;59.03
80149;BME280;69473;42.426;26.644;2023-05-20T04:58:18;99076.78;;;16.80;58.87
80149;BME280;69473;42.426;26.644;2023-05-20T05:00:44;99088.16;;;16.79;59.58
80149;BME280;69473;42.426;26.644;2023-05-20T05:03:11;99081.84;;;16.87;58.66
80149;BME280;69473;42.426;26.644;2023-05-20T05:05:39;99084.03;;;17.02;57.84
80149;BME280;69473;42.426;26.644;2023-05-20T05:08:07;99078.66;;;17.08;57.12
80149;BME280;69473;42.426;26.644;2023-05-20T05:10:34;99090.13;;;17.02;57.75
80149;BME280;69473;42.426;26.644;2023-05-20T05:13:00;99084.72;;;17.08;58.20
80149;BME280;69473;42.426;26.644;2023-05-20T05:15:26;99086.75;;;17.30;57.99
80149;BME280;69473;42.426;26.644;2023-05-20T05:17:52;99098.81;;;17.36;57.46
80149;BME280;69473;42.426;26.644;2023-05-20T05:20:18;99117.84;;;17.41;57.77
80149;BME280;69473;42.426;26.644;2023-05-20T05:22:44;99108.16;;;17.44;56.85
80149;BME280;69473;42.426;26.644;2023-05-20T05:25:11;99119.59;;;17.42;57.40
80149;BME280;69473;42.426;26.644;2023-05-20T05:27:37;99130.25;;;17.36;57.10
80149;BME280;69473;42.426;26.644;2023-05-20T05:30:04;99125.19;;;17.29;58.00
80149;BME280;69473;42.426;26.644;2023-05-20T05:32:30;99135.56;;;17.33;58.19
80149;BME280;69473;42.426;26.644;2023-05-20T05:34:56;99121.31;;;17.43;57.28
80149;BME280;69473;42.426;26.644;2023-05-20T05:37:22;99119.75;;;17.36;58.01
80149;BME280;69473;42.426;26.644;2023-05-20T05:39:48;99140.31;;;17.49;57.87
80149;BME280;69473;42.426;26.644;2023-05-20T05:42:13;99135.03;;;17.51;57.71
80149;BME280;69473;42.426;26.644;2023-05-20T05:44:39;99135.22;;;17.45;56.76
80149;BME280;69473;42.426;26.644;2023-05-20T05:47:04;99131.69;;;17.46;57.17
80149;BME280;69473;42.426;26.644;2023-05-20T05:49:31;99139.81;;;17.37;58.98
80149;BME280;69473;42.426;26.644;2023-05-20T05:51:57;99135.56;;;17.33;58.59
80149;BME280;69473;42.426;26.644;2023-05-20T05:54:23;99137.19;;;17.37;58.93
80149;BME280;69473;42.426;26.644;2023-05-20T05:56:50;99142.25;;;17.43;58.94
80149;BME280;69473;42.426;26.644;2023-05-20T05:59:16;99134.22;;;17.49;58.73
80149;BME280;69473;42.426;26.644;2023-05-20T06:01:41;99152.28;;;17.58;58.06
80149;BME280;69473;42.426;26.644;2023-05-20T06:04:07;99159.75;;;17.72;56.99
80149;BME280;69473;42.426;26.644;2023-05-20T06:06:33;99138.75;;;17.73;57.44
80149;BME280;69473;42.426;26.644;2023-05-20T06:08:58;99149.97;;;17.78;58.02
80149;BME280;69473;42.426;26.644;2023-05-20T06:11:24;99150.88;;;17.77;58.07
80149;BME280;69473;42.426;26.644;2023-05-20T06:13:50;99148.50;;;17.68;57.69
80149;BME280;69473;42.426;26.644;2023-05-20T06:16:16;99155.44;;;17.69;59.21
80149;BME280;69473;42.426;26.644;2023-05-20T06:18:44;99154.31;;;17.80;57.26
80149;BME280;69473;42.426;26.644;2023-05-20T06:21:10;99151.75;;;17.76;58.53
80149;BME280;69473;42.426;26.644;2023-05-20T06:23:35;99160.19;;;17.88;57.85
80149;BME280;69473;42.426;26.644;2023-05-20T06:26:01;99155.94;;;18.13;57.07
80149;BME280;69473;42.426;26.644;2023-05-20T06:28:28;99160.75;;;18.82;55.57
80149;BME280;69473;42.426;26.644;2023-05-20T06:30:55;99152.03;;;20.02;52.41
80149;BME280;69473;42.426;26.644;2023-05-20T06:33:25;99151.97;;;19.33;54.14
80149;BME280;69473;42.426;26.644;2023-05-20T06:35:55;99157.09;;;18.86;55.22
80149;BME280;69473;42.426;26.644;2023-05-20T06:38:21;99159.69;;;18.59;56.18
80149;BME280;69473;42.426;26.644;2023-05-20T06:40:49;99161.94;;;18.45;54.58
80149;BME280;69473;42.426;26.644;2023-05-20T06:43:16;99157.63;;;18.14;56.14
80149;BME280;69473;42.426;26.644;2023-05-20T06:45:42;99155.41;;;18.00;55.82
80149;BME280;69473;42.426;26.644;2023-05-20T06:48:08;99156.78;;;17.84;56.61
80149;BME280;69473;42.426;26.644;2023-05-20T06:50:34;99154.41;;;17.75;58.28
80149;BME280;69473;42.426;26.644;2023-05-20T06:53:00;99157.19;;;17.70;59.21
80149;BME280;69473;42.426;26.644;2023-05-20T06:55:26;99156.88;;;17.50;60.77
80149;BME280;69473;42.426;26.644;2023-05-20T06:57:52;99165.09;;;17.38;60.89
80149;BME280;69473;42.426;26.644;2023-05-20T07:00:17;99160.78;;;17.35;61.14
80149;BME280;69473;42.426;26.644;2023-05-20T07:02:43;99143.38;;;17.34;60.37
80149;BME280;69473;42.426;26.644;2023-05-20T07:05:09;99153.56;;;17.45;58.73
80149;BME280;69473;42.426;26.644;2023-05-20T07:07:35;99144.91;;;17.41;59.91
80149;BME280;69473;42.426;26.644;2023-05-20T07:10:00;99148.59;;;17.34;59.58
80149;BME280;69473;42.426;26.644;2023-05-20T07:12:26;99158.13;;;17.37;60.11
80149;BME280;69473;42.426;26.644;2023-05-20T07:14:51;99150.28;;;17.37;58.87
80149;BME280;69473;42.426;26.644;2023-05-20T07:17:17;99158.72;;;17.15;60.66
80149;BME280;69473;42.426;26.644;2023-05-20T07:19:43;99158.63;;;17.18;60.94
80149;BME280;69473;42.426;26.644;2023-05-20T07:22:08;99151.19;;;17.03;61.82
80149;BME280;69473;42.426;26.644;2023-05-20T07:24:35;99149.72;;;17.25;62.39
80149;BME280;69473;42.426;26.644;2023-05-20T07:27:00;99146.72;;;17.08;64.44
80149;BME280;69473;42.426;26.644;2023-05-20T07:29:26;99147.03;;;16.96;64.49
80149;BME280;69473;42.426;26.644;2023-05-20T07:31:51;99150.78;;;16.85;65.21
80149;BME280;69473;42.426;26.644;2023-05-20T07:34:17;99135.38;;;16.73;64.30
80149;BME280;69473;42.426;26.644;2023-05-20T07:36:42;99140.69;;;16.70;64.90
80149;BME280;69473;42.426;26.644;2023-05-20T07:39:09;99137.38;;;16.62;64.40
80149;BME280;69473;42.426;26.644;2023-05-20T07:41:35;99135.59;;;16.64;64.32
80149;BME280;69473;42.426;26.644;2023-05-20T07:44:03;99135.59;;;16.64;64.51
80149;BME280;69473;42.426;26.644;2023-05-20T07:46:29;99133.72;;;16.69;63.36
80149;BME280;69473;42.426;26.644;2023-05-20T07:48:55;99126.63;;;16.74;63.86
80149;BME280;69473;42.426;26.644;2023-05-20T07:51:20;99123.03;;;16.78;63.28
80149;BME280;69473;42.426;26.644;2023-05-20T07:53:46;99116.03;;;16.80;62.58
80149;BME280;69473;42.426;26.644;2023-05-20T07:56:12;99131.88;;;17.07;61.91
80149;BME280;69473;42.426;26.644;2023-05-20T07:58:40;99117.25;;;17.31;62.20
80149;BME280;69473;42.426;26.644;2023-05-20T08:01:05;99122.25;;;17.40;60.23
80149;BME280;69473;42.426;26.644;2023-05-20T08:03:31;99116.22;;;17.37;60.71
80149;BME280;69473;42.426;26.644;2023-05-20T08:05:57;99115.03;;;17.17;60.90
80149;BME280;69473;42.426;26.644;2023-05-20T08:08:22;99119.69;;;17.07;61.40
80149;BME280;69473;42.426;26.644;2023-05-20T08:10:50;99124.31;;;16.98;62.21
80149;BME280;69473;42.426;26.644;2023-05-20T08:13:15;99128.03;;;16.88;63.69
80149;BME280;69473;42.426;26.644;2023-05-20T08:15:41;99121.19;;;16.83;63.71
80149;BME280;69473;42.426;26.644;2023-05-20T08:18:06;99114.44;;;16.73;64.07
80149;BME280;69473;42.426;26.644;2023-05-20T08:20:32;99118.75;;;16.76;62.65
80149;BME280;69473;42.426;26.644;2023-05-20T08:22:57;99117.88;;;16.75;63.92
80149;BME280;69473;42.426;26.644;2023-05-20T08:25:23;99113.28;;;16.85;62.47
80149;BME280;69473;42.426;26.644;2023-05-20T08:27:48;99107.97;;;16.88;61.90
80149;BME280;69473;42.426;26.644;2023-05-20T08:30:14;99103.28;;;17.01;61.61
80149;BME280;69473;42.426;26.644;2023-05-20T08:32:39;99094.38;;;17.06;59.70
80149;BME280;69473;42.426;26.644;2023-05-20T08:35:06;99103.56;;;17.21;60.76
80149;BME280;69473;42.426;26.644;2023-05-20T08:37:32;99098.47;;;17.48;60.22
80149;BME280;69473;42.426;26.644;2023-05-20T08:39:57;99101.00;;;17.81;58.60
80149;BME280;69473;42.426;26.644;2023-05-20T08:42:23;99103.59;;;18.10;57.94
80149;BME280;69473;42.426;26.644;2023-05-20T08:44:51;99105.00;;;18.47;56.34
80149;BME280;69473;42.426;26.644;2023-05-20T08:47:19;99093.03;;;18.91;54.26
80149;BME280;69473;42.426;26.644;2023-05-20T08:49:49;99099.50;;;20.00;52.54
80149;BME280;69473;42.426;26.644;2023-05-20T08:52:17;99086.69;;;20.98;50.94
80149;BME280;69473;42.426;26.644;2023-05-20T08:54:48;99087.50;;;21.39;50.93
80149;BME280;69473;42.426;26.644;2023-05-20T08:57:14;99088.41;;;21.59;50.04
80149;BME280;69473;42.426;26.644;2023-05-20T08:59:45;99084.25;;;21.72;48.68
80149;BME280;69473;42.426;26.644;2023-05-20T09:02:14;99090.78;;;21.82;50.35
80149;BME280;69473;42.426;26.644;2023-05-20T09:04:39;99087.06;;;21.86;49.00
80149;BME280;69473;42.426;26.644;2023-05-20T09:07:05;99088.91;;;22.22;47.93
80149;BME280;69473;42.426;26.644;2023-05-20T09:09:32;99085.66;;;22.52;47.76
80149;BME280;69473;42.426;26.644;2023-05-20T09:11:59;99084.13;;;22.82;46.45
80149;BME280;69473;42.426;26.644;2023-05-20T09:14:24;99073.56;;;22.82;44.99
80149;BME280;69473;42.426;26.644;2023-05-20T09:16:51;99090.03;;;22.53;45.57
80149;BME280;69473;42.426;26.644;2023-05-20T09:19:19;99083.34;;;22.28;45.44
80149;BME280;69473;42.426;26.644;2023-05-20T09:21:46;99094.22;;;21.84;45.94
80149;BME280;69473;42.426;26.644;2023-05-20T09:24:11;99078.97;;;21.72;47.05
80149;BME280;69473;42.426;26.644;2023-05-20T09:26:37;99087.47;;;22.15;44.53
80149;BME280;69473;42.426;26.644;2023-05-20T09:29:03;99090.19;;;22.67;43.79
80149;BME280;69473;42.426;26.644;2023-05-20T09:31:32;99102.31;;;22.71;42.70
80149;BME280;69473;42.426;26.644;2023-05-20T09:34:00;99104.59;;;22.25;42.20
80149;BME280;69473;42.426;26.644;2023-05-20T09:36:28;99106.75;;;21.79;42.76
80149;BME280;69473;42.426;26.644;2023-05-20T09:39:00;99103.56;;;21.33;43.97
80149;BME280;69473;42.426;26.644;2023-05-20T09:41:37;99097.53;;;21.11;44.03
80149;BME280;69473;42.426;26.644;2023-05-20T09:44:04;99097.13;;;21.20;43.92
80149;BME280;69473;42.426;26.644;2023-05-20T09:46:33;99107.94;;;21.14;42.91
80149;BME280;69473;42.426;26.644;2023-05-20T09:49:00;99109.16;;;20.86;44.66
80149;BME280;69473;42.426;26.644;2023-05-20T09:51:27;99106.38;;;20.69;45.12
80149;BME280;69473;42.426;26.644;2023-05-20T09:53:53;99116.25;;;20.42;46.07
80149;BME280;69473;42.426;26.644;2023-05-20T09:56:19;99119.97;;;20.36;46.62
80149;BME280;69473;42.426;26.644;2023-05-20T09:58:49;99120.19;;;20.10;47.25
80149;BME280;69473;42.426;26.644;2023-05-20T10:01:15;99110.94;;;19.99;47.71
80149;BME280;69473;42.426;26.644;2023-05-20T10:03:41;99108.22;;;19.79;48.15
80149;BME280;69473;42.426;26.644;2023-05-20T10:06:33;99115.53;;;19.47;48.60
80149;BME280;69473;42.426;26.644;2023-05-20T10:09:33;99115.28;;;19.30;49.36
80149;BME280;69473;42.426;26.644;2023-05-20T10:14:50;99112.63;;;19.06;49.79
80149;BME280;69473;42.426;26.644;2023-05-20T10:19:57;99097.97;;;19.01;50.17
80149;BME280;69473;42.426;26.644;2023-05-20T10:22:28;99103.56;;;19.15;50.12
80149;BME280;69473;42.426;26.644;2023-05-20T10:24:59;99108.00;;;19.38;49.92
80149;BME280;69473;42.426;26.644;2023-05-20T10:27:25;99101.25;;;19.78;49.73
80149;BME280;69473;42.426;26.644;2023-05-20T10:29:54;99105.28;;;20.30;48.43
80149;BME280;69473;42.426;26.644;2023-05-20T10:32:31;99095.50;;;20.76;47.85
80149;BME280;69473;42.426;26.644;2023-05-20T10:34:59;99088.28;;;21.21;46.38
80149;BME280;69473;42.426;26.644;2023-05-20T10:37:27;99097.34;;;21.55;46.28
80149;BME280;69473;42.426;26.644;2023-05-20T10:40:24;99088.81;;;21.68;45.57
80149;BME280;69473;42.426;26.644;2023-05-20T10:42:49;99086.38;;;21.64;45.88
80149;BME280;69473;42.426;26.644;2023-05-20T10:45:28;99077.66;;;21.62;46.10
80149;BME280;69473;42.426;26.644;2023-05-20T10:47:57;99088.41;;;21.59;45.77
80149;BME280;69473;42.426;26.644;2023-05-20T10:50:41;99086.38;;;21.64;45.49
80149;BME280;69473;42.426;26.644;2023-05-20T10:53:11;99078.69;;;21.78;45.77
80149;BME280;69473;42.426;26.644;2023-05-20T10:55:39;99081.78;;;21.86;45.50
80149;BME280;69473;42.426;26.644;2023-05-20T10:58:05;99095.78;;;21.88;45.96
80149;BME280;69473;42.426;26.644;2023-05-20T11:00:35;99086.22;;;21.86;45.42
80149;BME280;69473;42.426;26.644;2023-05-20T11:03:03;99084.94;;;21.95;45.18
80149;BME280;69473;42.426;26.644;2023-05-20T11:05:29;99078.16;;;21.89;46.06
80149;BME280;69473;42.426;26.644;2023-05-20T11:08:03;99079.38;;;21.82;46.73
80149;BME280;69473;42.426;26.644;2023-05-20T11:10:29;99067.69;;;21.87;46.24
80149;BME280;69473;42.426;26.644;2023-05-20T11:12:56;99078.41;;;21.84;47.17
80149;BME280;69473;42.426;26.644;2023-05-20T11:15:22;99066.25;;;21.80;46.68
80149;BME280;69473;42.426;26.644;2023-05-20T11:17:55;99078.97;;;21.72;46.21
80149;BME280;69473;42.426;26.644;2023-05-20T11:20:24;99072.13;;;21.68;46.38
80149;BME280;69473;42.426;26.644;2023-05-20T11:22:51;99075.13;;;21.41;47.46
80149;BME280;69473;42.426;26.644;2023-05-20T11:25:17;99071.44;;;21.25;47.04
80149;BME280;69473;42.426;26.644;2023-05-20T11:27:44;99067.75;;;21.09;48.13
80149;BME280;69473;42.426;26.644;2023-05-20T11:30:12;99087.41;;;21.02;49.87
80149;BME280;69473;42.426;26.644;2023-05-20T11:32:58;99081.34;;;20.99;48.95
80149;BME280;69473;42.426;26.644;2023-05-20T11:35:25;99095.13;;;20.86;50.54
80149;BME280;69473;42.426;26.644;2023-05-20T11:38:04;99077.13;;;20.95;50.34
80149;BME280;69473;42.426;26.644;2023-05-20T11:40:32;99075.72;;;20.88;50.30
80149;BME280;69473;42.426;26.644;2023-05-20T11:43:00;99091.91;;;20.79;49.80
80149;BME280;69473;42.426;26.644;2023-05-20T11:45:26;99081.97;;;20.86;49.60
80149;BME280;69473;42.426;26.644;2023-05-20T11:47:59;99075.31;;;20.97;49.14
80149;BME280;69473;42.426;26.644;2023-05-20T11:50:25;99067.75;;;21.09;49.11
80149;BME280;69473;42.426;26.644;2023-05-20T11:53:02;99066.41;;;21.39;49.50
80149;BME280;69473;42.426;26.644;2023-05-20T11:55:28;99048.19;;;21.54;48.64
80149;BME280;69473;42.426;26.644;2023-05-20T11:57:54;99051.00;;;21.68;48.40
80149;BME280;69473;42.426;26.644;2023-05-20T12:00:22;99052.34;;;21.96;48.13
80149;BME280;69473;42.426;26.644;2023-05-20T12:02:48;99050.25;;;22.02;50.00
80149;BME280;69473;42.426;26.644;2023-05-20T12:05:14;99030.56;;;22.09;48.54
80149;BME280;69473;42.426;26.644;2023-05-20T12:07:40;99009.38;;;22.11;49.19
80149;BME280;69473;42.426;26.644;2023-05-20T12:10:06;99015.44;;;22.13;48.88
80149;BME280;69473;42.426;26.644;2023-05-20T12:12:32;99016.06;;;22.01;49.11
80149;BME280;69473;42.426;26.644;2023-05-20T12:14:58;99008.69;;;21.90;49.00
80149;BME280;69473;42.426;26.644;2023-05-20T12:17:23;99003.13;;;21.77;49.22
80149;BME280;69473;42.426;26.644;2023-05-20T12:19:49;99002.84;;;21.64;49.60
80149;BME280;69473;42.426;26.644;2023-05-20T12:22:14;98996.41;;;21.53;48.66
80149;BME280;69473;42.426;26.644;2023-05-20T12:24:40;98996.59;;;21.48;48.39
80149;BME280;69473;42.426;26.644;2023-05-20T12:27:06;98997.75;;;21.42;49.13
80149;BME280;69473;42.426;26.644;2023-05-20T12:29:32;98983.31;;;21.31;48.94
80149;BME280;69473;42.426;26.644;2023-05-20T12:31:58;98981.47;;;21.14;50.98
80149;BME280;69473;42.426;26.644;2023-05-20T12:34:24;98981.19;;;21.20;51.32
80149;BME280;69473;42.426;26.644;2023-05-20T12:36:50;98976.38;;;21.49;49.77
80149;BME280;69473;42.426;26.644;2023-05-20T12:39:16;98969.78;;;21.76;49.52
80149;BME280;69473;42.426;26.644;2023-05-20T12:41:43;98967.63;;;21.84;49.13
80149;BME280;69473;42.426;26.644;2023-05-20T12:44:09;98963.91;;;21.88;49.24
80149;BME280;69473;42.426;26.644;2023-05-20T12:46:35;98959.84;;;21.99;49.94
80149;BME280;69473;42.426;26.644;2023-05-20T12:49:02;98949.31;;;21.99;49.45
80149;BME280;69473;42.426;26.644;2023-05-20T12:51:28;98945.78;;;22.34;47.98
80149;BME280;69473;42.426;26.644;2023-05-20T12:53:54;98941.34;;;22.52;46.70